Terminal Aerodrome Forecast
Issued by NWS

Home | Current Version | Previous Version | Text Only | Print | Product List | Glossary On
Versions: 1 2 3 4 5 6 7 8 9 10 11 12 13 14 15 16 17 18 19 20 21 22 23 24 25 26 27
000
FTUS41 KOKX 201120
TAFSWF
TAF
KSWF 201120Z 2012/2118 VRB05KT 4SM BR OVC006
     FM201300 27011KT P6SM SCT007 OVC015
     FM201600 29009G18KT P6SM VCSH SCT020 BKN035
     FM202000 31010G18KT P6SM SCT035 BKN250
     FM210000 32008KT P6SM BKN250
     FM210300 VRB04KT P6SM SCT250
      AMD NOT SKED=

USA.gov is the U.S. government's official web portal to all federal, state and local government web resources and services.